.
WxDataArchive / Data Records for 2009-07-16
2009-07-15 July 2009 2009-07-17

Data Records for Thursday, 16 July 2009

Time	Temp	Chill	HIndex	Humid	Dewpt	 Wind 	HiWind	WindDir	Rain 	Barom 
-----	----	-----	------	-----	-----	------	------	-------	-----	----- 
00:00	74.9	74.9	74.9	69	64.0	0	1	248	0.00	29.883 
00:05	74.7	74.7	74.7	69	63.8	0	2	248	0.00	29.883 
00:10	74.7	74.7	74.7	69	63.8	0	2	248	0.00	29.883 
00:15	74.7	74.7	74.7	69	63.8	0	2	248	0.00	29.888 
00:20	74.6	74.6	74.6	70	64.2	0	3	248	0.00	29.888 
00:25	74.4	74.4	74.4	70	64.0	0	2	248	0.00	29.888 
00:30	74.2	74.2	74.2	70	63.8	0	1	248	0.00	29.896 
00:35	74.0	74.0	74.0	71	64.0	0	1	248	0.00	29.896 
00:40	73.9	73.9	73.9	71	63.9	0	2	248	0.00	29.896 
00:45	73.9	73.9	73.9	71	63.9	0	2	248	0.00	29.896 
00:50	73.7	73.7	73.7	72	64.1	0	1	248	0.00	29.896 
00:55	73.7	73.7	73.7	72	64.1	0	1	248	0.00	29.896 
01:00	73.5	73.5	73.5	73	64.3	0	1	248	0.00	29.896 
01:05	73.2	73.2	73.2	73	64.0	0	1	248	0.00	29.896 
01:10	73.0	73.0	73.0	74	64.2	0	1	248	0.00	29.896 
01:15	72.7	72.7	72.7	75	64.3	0	1	248	0.00	29.896 
01:20	72.3	72.3	72.3	76	64.3	0	1	248	0.00	29.896 
01:25	72.1	72.1	72.1	76	64.1	0	0	---	0.00	29.896 
01:30	71.8	71.8	71.8	77	64.2	0	0	---	0.00	29.898 
01:35	71.5	71.5	71.5	78	64.3	0	0	---	0.00	29.898 
01:40	71.1	71.1	71.1	78	63.9	0	0	---	0.00	29.898 
01:45	70.8	70.8	70.8	79	64.0	0	0	---	0.00	29.904 
01:50	70.4	70.4	70.4	80	63.9	0	0	---	0.00	29.904 
01:55	70.3	70.3	70.3	81	64.2	0	0	---	0.00	29.904 
02:00	70.1	70.1	70.1	81	64.0	0	0	---	0.00	29.906 
02:05	70.1	70.1	70.1	81	64.0	0	1	248	0.00	29.906 
02:10	70.1	70.1	70.1	81	64.0	0	1	248	0.00	29.906 
02:15	70.1	70.1	70.1	81	64.0	0	1	248	0.00	29.906 
02:20	69.9	69.9	69.9	81	63.8	0	1	248	0.00	29.906 
02:25	69.8	69.8	69.8	82	64.0	0	0	---	0.00	29.906 
02:30	69.6	69.6	69.6	82	63.9	0	1	248	0.00	29.903 
02:35	69.6	69.6	69.6	82	63.9	0	1	248	0.00	29.903 
02:40	69.4	69.4	69.4	83	64.0	0	1	248	0.00	29.903 
02:45	69.4	69.4	69.4	83	64.0	0	0	---	0.00	29.901 
02:50	69.3	69.3	69.3	83	63.9	0	0	---	0.00	29.901 
02:55	69.3	69.3	69.3	83	63.9	0	0	---	0.00	29.901 
03:00	69.3	69.3	69.3	84	64.2	0	1	248	0.00	29.895 
03:05	69.3	69.3	69.3	84	64.2	0	1	248	0.00	29.895 
03:10	69.3	69.3	69.3	84	64.2	0	0	---	0.00	29.895 
03:15	69.3	69.3	69.3	84	64.2	0	1	248	0.00	29.899 
03:20	69.3	69.3	69.3	84	64.2	0	1	248	0.00	29.899 
03:25	69.3	69.3	69.3	83	63.9	0	1	248	0.00	29.899 
03:30	69.3	69.3	69.3	83	63.9	0	1	248	0.00	29.899 
03:35	69.1	69.1	69.1	82	63.4	0	1	248	0.00	29.899 
03:40	69.1	69.1	69.1	82	63.4	0	1	248	0.00	29.899 
03:45	68.9	68.9	68.9	82	63.2	0	0	---	0.00	29.899 
03:50	68.8	68.8	68.8	82	63.1	0	0	---	0.00	29.899 
03:55	68.8	68.8	68.8	82	63.1	0	1	248	0.00	29.899 
04:00	68.6	68.6	68.6	81	62.5	0	0	---	0.00	29.896 
04:05	68.6	68.6	68.6	81	62.5	0	0	---	0.00	29.896 
04:10	68.4	68.4	68.4	82	62.7	0	1	248	0.00	29.896 
04:15	68.3	68.3	68.3	82	62.6	0	1	248	0.00	29.894 
04:20	68.1	68.1	68.1	82	62.4	0	0	---	0.00	29.894 
04:25	67.8	67.8	67.8	83	62.4	0	0	---	0.00	29.894 
04:30	67.6	67.6	67.6	83	62.2	0	0	---	0.00	29.895 
04:35	67.4	67.4	67.4	83	62.0	0	1	248	0.00	29.895 
04:40	67.3	67.3	67.3	84	62.3	0	0	---	0.00	29.895 
04:45	67.1	67.1	67.1	84	62.1	0	0	---	0.00	29.899 
04:50	67.1	67.1	67.1	84	62.1	0	1	248	0.00	29.899 
04:55	66.9	66.9	66.9	84	61.9	0	0	---	0.00	29.899 
05:00	66.9	66.9	66.9	84	61.9	0	1	248	0.00	29.899 
05:05	66.8	66.8	66.8	85	62.1	0	0	---	0.00	29.899 
05:10	66.8	66.8	66.8	85	62.1	0	0	---	0.00	29.899 
05:15	66.6	66.6	66.6	85	61.9	0	1	248	0.00	29.898 
05:20	66.4	66.4	66.4	86	62.1	0	0	---	0.00	29.898 
05:25	66.4	66.4	66.4	86	62.1	0	1	248	0.00	29.898 
05:30	66.3	66.3	66.3	86	62.0	0	1	248	0.00	29.900 
05:35	66.3	66.3	66.3	86	62.0	0	1	248	0.00	29.900 
05:40	66.3	66.3	66.3	86	62.0	0	1	248	0.00	29.900 
05:45	66.3	66.3	66.3	86	62.0	0	2	248	0.00	29.893 
05:50	66.3	66.3	66.3	86	62.0	0	1	248	0.00	29.893 
05:55	66.3	66.3	66.3	86	62.0	0	1	248	0.00	29.893 
06:00	66.1	66.1	66.1	86	61.8	0	1	248	0.00	29.896 
06:05	66.1	66.1	66.1	86	61.8	0	1	248	0.00	29.896 
06:10	66.1	66.1	66.1	86	61.8	0	2	248	0.00	29.896 
06:15	66.3	66.3	66.3	86	62.0	0	1	248	0.00	29.899 
06:20	66.1	66.1	66.1	86	61.8	0	1	248	0.00	29.899 
06:25	66.1	66.1	66.1	86	61.8	0	2	248	0.00	29.899 
06:30	66.1	66.1	66.1	86	61.8	0	1	248	0.00	29.901 
06:35	66.0	66.0	66.0	86	61.7	0	1	248	0.00	29.901 
06:40	66.0	66.0	66.0	86	61.7	0	1	248	0.00	29.901 
06:45	66.0	66.0	66.0	86	61.7	0	1	248	0.00	29.903 
06:50	66.0	66.0	66.0	86	61.7	0	1	248	0.00	29.903 
06:55	66.1	66.1	66.1	86	61.8	0	1	248	0.00	29.903 
07:00	66.1	66.1	66.1	86	61.8	0	2	248	0.00	29.908 
07:05	66.0	66.0	66.0	86	61.7	0	2	248	0.00	29.908 
07:10	66.1	66.1	66.1	85	61.5	0	2	248	0.00	29.908 
07:15	66.1	66.1	66.1	85	61.5	0	1	248	0.00	29.913 
07:20	66.3	66.3	66.3	85	61.6	1	2	248	0.00	29.913 
07:25	66.4	66.4	66.4	85	61.7	0	2	270	0.00	29.913 
07:30	66.8	66.8	66.8	84	61.8	1	2	270	0.00	29.912 
07:35	67.1	67.1	67.1	84	62.1	0	2	270	0.00	29.912 
07:40	67.3	67.3	67.3	83	62.0	0	2	270	0.00	29.912 
07:45	67.4	67.4	67.4	82	61.7	1	3	270	0.00	29.913 
07:50	67.8	67.8	67.8	82	62.1	1	3	270	0.00	29.913 
07:55	68.1	68.1	68.1	81	62.0	1	3	292	0.00	29.913 
08:00	68.4	68.4	68.4	81	62.3	1	2	292	0.00	29.913 
08:05	68.6	68.6	68.6	80	62.2	1	3	292	0.00	29.913 
08:10	68.9	68.9	68.9	79	62.1	1	2	292	0.00	29.913 
08:15	69.3	69.3	69.3	78	62.1	1	3	292	0.00	29.916 
08:20	69.4	69.4	69.4	78	62.2	1	3	292	0.00	29.916 
08:25	69.8	69.8	69.8	77	62.3	1	3	292	0.00	29.916 
08:30	70.1	70.1	70.1	77	62.5	1	3	292	0.00	29.914 
08:35	70.3	70.3	70.3	75	62.0	1	2	292	0.00	29.914 
08:40	70.4	70.4	70.4	75	62.1	1	4	270	0.00	29.914 
08:45	70.8	70.8	70.8	74	62.1	2	4	292	0.00	29.913 
08:50	70.8	70.8	70.8	73	61.7	2	5	270	0.00	29.913 
08:55	70.9	70.9	70.9	73	61.8	2	5	270	0.00	29.913 
09:00	71.1	71.1	71.1	73	62.0	2	4	315	0.00	29.914 
09:05	71.5	71.5	71.5	72	62.0	1	3	315	0.00	29.914 
09:10	71.6	71.6	71.6	72	62.1	2	4	292	0.00	29.914 
09:15	71.6	71.6	71.6	72	62.1	2	5	292	0.00	29.915 
09:20	71.8	71.8	71.8	71	61.9	1	4	270	0.00	29.915 
09:25	72.3	72.3	72.3	70	62.0	1	2	270	0.00	29.915 
09:30	72.7	72.7	72.7	69	61.9	1	3	270	0.00	29.915 
09:35	72.8	72.8	72.8	69	62.0	1	5	315	0.00	29.915 
09:40	73.0	73.0	73.0	69	62.2	1	3	292	0.00	29.915 
09:45	73.2	73.2	73.2	66	61.1	1	3	315	0.00	29.911 
09:50	73.3	73.3	73.3	67	61.7	1	3	292	0.00	29.911 
09:55	73.9	73.9	73.9	67	62.2	1	3	292	0.00	29.911 
10:00	74.4	74.4	74.4	64	61.4	1	3	292	0.00	29.911 
10:05	74.7	74.7	74.7	64	61.7	2	3	292	0.00	29.911 
10:10	74.7	74.7	74.7	62	60.8	2	4	292	0.00	29.911 
10:15	74.7	74.7	74.7	62	60.8	1	3	292	0.00	29.911 
10:20	74.9	74.9	74.9	60	60.1	1	4	270	0.00	29.911 
10:25	75.3	75.3	77.6	58	59.5	2	4	292	0.00	29.911 
10:30	75.3	75.3	77.6	59	60.0	2	5	270	0.00	29.909 
10:35	75.4	75.4	77.7	58	59.6	1	3	315	0.00	29.909 
10:40	75.6	75.6	77.8	59	60.2	1	4	315	0.00	29.909 
10:45	76.0	76.0	78.0	59	60.6	1	3	315	0.00	29.909 
10:50	76.1	76.1	78.1	58	60.2	2	4	292	0.00	29.909 
10:55	76.5	76.5	78.4	58	60.6	2	4	315	0.00	29.909 
11:00	77.0	77.0	78.7	54	59.1	2	4	248	0.00	29.911 
11:05	76.7	76.7	78.5	54	58.8	2	4	270	0.00	29.911 
11:10	76.7	76.7	78.5	56	59.8	1	3	315	0.00	29.911 
11:15	77.0	77.0	78.7	57	60.6	2	5	315	0.00	29.910 
11:20	77.4	77.4	79.0	55	59.9	1	3	315	0.00	29.910 
11:25	77.4	77.4	79.0	54	59.4	2	5	270	0.00	29.910 
11:30	77.4	77.4	78.9	53	58.9	2	4	270	0.00	29.914 
11:35	77.4	77.4	78.9	51	57.8	2	6	270	0.00	29.914 
11:40	77.9	77.9	79.3	54	59.9	2	4	270	0.00	29.914 
11:45	77.7	77.7	79.1	52	58.6	2	5	270	0.00	29.912 
11:50	77.4	77.4	78.9	52	58.4	2	4	270	0.00	29.912 
11:55	77.9	77.9	79.2	51	58.3	1	4	292	0.00	29.912 
12:00	78.5	78.5	79.5	49	57.7	3	5	270	0.00	29.906 
12:05	78.8	78.8	79.7	49	58.0	2	4	248	0.00	29.906 
12:10	79.0	79.0	79.7	46	56.4	3	6	270	0.00	29.906 
12:15	79.2	79.2	79.8	46	56.6	3	5	270	0.00	29.913 
12:20	79.4	79.4	80.0	46	56.8	2	5	270	0.00	29.913 
12:25	79.6	79.6	80.0	44	55.7	3	6	292	0.00	29.913 
12:30	79.4	79.4	79.8	43	54.9	4	7	292	0.00	29.914 
12:35	79.4	79.4	79.9	45	56.2	3	6	270	0.00	29.914 
12:40	79.4	79.4	80.0	46	56.8	2	6	270	0.00	29.914 
12:45	79.6	79.6	80.0	44	55.7	3	5	270	0.00	29.911 
12:50	79.9	79.9	80.1	43	55.4	3	7	270	0.00	29.911 
12:55	80.1	80.1	80.3	43	55.6	2	5	292	0.00	29.911 
13:00	80.1	80.1	80.3	43	55.6	3	6	270	0.00	29.898 
13:05	79.9	79.9	79.9	41	54.1	2	6	270	0.00	29.898 
13:10	79.8	79.8	79.9	41	54.0	3	7	270	0.00	29.898 
13:15	79.8	79.8	80.2	45	56.5	2	4	292	0.00	29.901 
13:20	80.1	80.1	80.2	42	54.9	3	6	270	0.00	29.901 
13:25	79.8	79.8	79.9	41	54.0	3	6	270	0.00	29.901 
13:30	79.4	79.4	79.7	42	54.3	3	7	270	0.00	29.915 
13:35	80.1	80.1	80.3	43	55.6	3	6	270	0.00	29.915 
13:40	80.3	80.3	80.4	43	55.7	2	5	270	0.00	29.915 
13:45	80.1	80.1	80.2	42	54.9	2	5	270	0.00	29.909 
13:50	80.1	80.1	80.3	43	55.6	2	5	270	0.00	29.909 
13:55	80.5	80.5	80.5	42	55.3	2	4	270	0.00	29.909 
14:00	80.5	80.5	80.5	42	55.3	3	6	292	0.00	29.917 
14:05	80.5	80.5	80.6	43	55.9	3	5	270	0.00	29.917 
14:10	80.7	80.7	80.6	42	55.4	3	6	270	0.00	29.917 
14:15	80.5	80.5	80.3	40	53.9	2	6	315	0.00	29.925 
14:20	80.7	80.7	80.4	40	54.1	2	5	292	0.00	29.925 
14:25	80.5	80.5	80.3	40	53.9	2	4	315	0.00	29.925 
14:30	80.3	80.3	80.1	39	53.1	3	5	270	0.00	29.916 
14:35	79.9	79.9	79.7	38	52.0	2	5	292	0.00	29.916 
14:40	80.1	80.1	79.9	39	52.9	2	4	315	0.00	29.916 
14:45	80.5	80.5	80.2	39	53.2	2	5	315	0.00	29.914 
14:50	80.7	80.7	80.4	40	54.1	2	4	270	0.00	29.914 
14:55	81.1	81.1	80.7	40	54.5	2	4	270	0.00	29.914 
15:00	81.1	81.1	80.4	37	52.3	3	5	270	0.00	29.915 
15:05	81.2	81.2	80.3	35	50.9	2	6	270	0.00	29.915 
15:10	80.9	80.9	80.1	34	49.9	2	7	315	0.00	29.915 
15:15	80.9	80.9	80.4	38	52.9	2	3	292	0.00	29.905 
15:20	81.2	81.2	80.4	36	51.7	3	5	270	0.00	29.905 
15:25	81.8	81.8	81.0	37	53.0	1	4	270	0.00	29.905 
15:30	81.2	81.2	80.6	38	53.1	2	5	315	0.00	29.903 
15:35	81.8	81.8	80.8	35	51.4	2	5	315	0.00	29.903 
15:40	81.8	81.8	80.2	28	45.5	3	5	292	0.00	29.903 
15:45	81.8	81.8	80.5	32	49.0	2	6	338	0.00	29.908 
15:50	82.0	82.0	80.7	33	50.0	2	6	292	0.00	29.908 
15:55	82.0	82.0	80.7	32	49.2	2	5	270	0.00	29.908 
16:00	82.2	82.2	80.7	31	48.5	3	5	270	0.00	29.902 
16:05	82.0	82.0	80.5	30	47.5	3	6	270	0.00	29.902 
16:10	82.0	82.0	80.6	31	48.4	3	5	270	0.00	29.902 
16:15	82.0	82.0	80.6	31	48.4	3	5	270	0.00	29.902 
16:20	82.2	82.2	80.6	30	47.7	2	5	270	0.00	29.902 
16:25	82.0	82.0	80.3	28	45.7	2	6	248	0.00	29.902 
16:30	82.4	82.4	80.6	28	46.0	1	4	338	0.00	29.897 
16:35	82.0	82.0	80.3	28	45.7	2	5	315	0.00	29.897 
16:40	82.2	82.2	80.7	31	48.5	2	4	315	0.00	29.897 
16:45	82.6	82.6	81.1	32	49.7	3	7	270	0.00	29.892 
16:50	82.4	82.4	80.9	31	48.7	2	5	292	0.00	29.892 
16:55	82.4	82.4	80.7	29	46.9	2	6	270	0.00	29.892 
17:00	82.4	82.4	80.9	31	48.7	1	3	315	0.00	29.891 
17:05	82.4	82.4	80.9	31	48.7	2	5	315	0.00	29.891 
17:10	82.0	82.0	80.6	31	48.4	2	6	270	0.00	29.891 
17:15	81.8	81.8	80.6	33	49.9	2	5	270	0.00	29.890 
17:20	82.2	82.2	80.9	33	50.2	2	5	315	0.00	29.890 
17:25	82.0	82.0	80.8	34	50.8	2	5	315	0.00	29.890 
17:30	82.0	82.0	80.7	33	50.0	1	5	315	0.00	29.887 
17:35	82.2	82.2	81.1	35	51.8	1	3	315	0.00	29.887 
17:40	82.0	82.0	80.9	35	51.6	2	5	270	0.00	29.887 
17:45	82.0	82.0	81.0	36	52.4	1	4	292	0.00	29.881 
17:50	82.2	82.2	81.3	37	53.3	1	4	315	0.00	29.881 
17:55	81.6	81.6	80.7	36	52.0	3	6	270	0.00	29.881 
18:00	81.2	81.2	80.6	38	53.1	2	4	315	0.00	29.877 
18:05	81.4	81.4	80.8	38	53.3	1	4	315	0.00	29.877 
18:10	81.4	81.4	80.7	37	52.6	2	5	270	0.00	29.877 
18:15	81.1	81.1	80.6	39	53.8	2	6	292	0.00	29.874 
18:20	80.9	80.9	80.4	38	52.9	1	3	292	0.00	29.874 
18:25	80.7	80.7	80.2	38	52.7	1	4	315	0.00	29.874 
18:30	80.5	80.5	80.1	38	52.5	1	4	315	0.00	29.870 
18:35	80.3	80.3	80.1	39	53.1	1	3	315	0.00	29.870 
18:40	80.3	80.3	80.1	40	53.8	1	2	315	0.00	29.870 
18:45	80.3	80.3	80.1	39	53.1	1	3	248	0.00	29.870 
18:50	80.3	80.3	80.1	39	53.1	2	5	270	0.00	29.870 
18:55	80.3	80.3	80.1	39	53.1	1	4	270	0.00	29.870 
19:00	80.5	80.5	80.2	39	53.2	1	3	315	0.00	29.859 
19:05	80.3	80.3	80.1	39	53.1	2	5	292	0.00	29.859 
19:10	80.3	80.3	80.1	39	53.1	1	3	292	0.00	29.859 
19:15	80.1	80.1	80.0	40	53.6	1	3	315	0.00	29.852 
19:20	79.9	79.9	79.9	41	54.1	1	3	270	0.00	29.852 
19:25	79.8	79.8	79.9	41	54.0	1	3	270	0.00	29.852 
19:30	79.9	79.9	80.0	42	54.7	1	3	270	0.00	29.845 
19:35	80.3	80.3	80.2	41	54.4	1	3	270	0.00	29.845 
19:40	80.5	80.5	80.6	43	55.9	0	2	270	0.00	29.845 
19:45	80.3	80.3	80.3	42	55.1	1	2	270	0.00	29.841 
19:50	80.3	80.3	80.3	42	55.1	1	3	270	0.00	29.841 
19:55	80.1	80.1	80.3	43	55.6	1	3	270	0.00	29.841 
20:00	79.9	79.9	80.2	44	56.0	0	1	270	0.00	29.847 
20:05	79.8	79.8	80.1	44	55.9	0	2	270	0.00	29.847 
20:10	79.6	79.6	80.0	44	55.7	1	3	270	0.00	29.847 
20:15	79.2	79.2	79.7	44	55.4	1	4	270	0.00	29.844 
20:20	79.0	79.0	79.6	45	55.8	0	2	270	0.00	29.844 
20:25	78.8	78.8	79.5	45	55.6	1	2	270	0.00	29.844 
20:30	78.6	78.6	79.4	46	56.1	0	2	270	0.00	29.839 
20:35	78.5	78.5	79.4	46	56.0	1	3	270	0.00	29.839 
20:40	78.3	78.3	79.2	46	55.8	0	2	248	0.00	29.839 
20:45	78.1	78.1	79.2	47	56.2	0	1	248	0.00	29.843 
20:50	77.7	77.7	78.9	48	56.4	0	2	248	0.00	29.843 
20:55	77.6	77.6	78.9	48	56.3	0	1	248	0.00	29.843 
21:00	77.2	77.2	78.7	49	56.5	0	1	248	0.00	29.840 
21:05	77.0	77.0	78.6	49	56.4	0	1	248	0.00	29.840 
21:10	76.8	76.8	78.5	50	56.7	0	2	248	0.00	29.840 
21:15	76.7	76.7	78.4	50	56.6	0	3	248	0.00	29.840 
21:20	76.5	76.5	78.3	51	57.0	0	1	248	0.00	29.840 
21:25	76.3	76.3	78.2	51	56.8	0	2	248	0.00	29.840 
21:30	76.3	76.3	78.2	51	56.8	0	3	248	0.00	29.840 
21:35	76.3	76.3	78.2	52	57.4	0	2	248	0.00	29.840 
21:40	76.1	76.1	78.1	52	57.2	0	1	248	0.00	29.840 
21:45	76.0	76.0	78.1	53	57.6	0	1	248	0.00	29.838 
21:50	75.8	75.8	78.0	53	57.4	0	2	248	0.00	29.838 
21:55	75.6	75.6	77.9	54	57.8	0	1	248	0.00	29.838 
22:00	75.4	75.4	77.8	54	57.6	0	1	248	0.00	29.842 
22:05	75.3	75.3	77.7	55	58.0	0	1	248	0.00	29.842 
22:10	75.1	75.1	77.6	55	57.8	0	1	248	0.00	29.842 
22:15	74.9	74.9	74.9	56	58.1	0	1	248	0.00	29.847 
22:20	74.9	74.9	74.9	56	58.1	0	1	248	0.00	29.847 
22:25	74.7	74.7	74.7	57	58.4	0	1	248	0.00	29.847 
22:30	74.6	74.6	74.6	57	58.3	0	1	248	0.00	29.852 
22:35	74.6	74.6	74.6	57	58.3	0	1	248	0.00	29.852 
22:40	74.6	74.6	74.6	57	58.3	0	1	248	0.00	29.852 
22:45	74.4	74.4	74.4	58	58.6	0	0	---	0.00	29.852 
22:50	74.2	74.2	74.2	58	58.5	0	2	248	0.00	29.852 
22:55	74.0	74.0	74.0	59	58.7	0	1	248	0.00	29.852 
23:00	73.9	73.9	73.9	59	58.7	0	1	248	0.00	29.855 
23:05	73.9	73.9	73.9	59	58.7	0	2	248	0.00	29.855 
23:10	73.9	73.9	73.9	60	59.1	0	2	68	0.00	29.855 
23:15	73.9	73.9	73.9	60	59.1	0	1	68	0.00	29.852 
23:20	73.7	73.7	73.7	60	58.9	1	3	270	0.00	29.852 
23:25	73.9	73.9	73.9	60	59.1	0	1	270	0.00	29.852 
23:30	73.9	73.9	73.9	60	59.1	0	1	270	0.00	29.853 
23:35	73.7	73.7	73.7	60	58.9	0	1	270	0.00	29.853 
23:40	73.7	73.7	73.7	60	58.9	0	1	270	0.00	29.853 
23:45	73.5	73.5	73.5	61	59.2	0	1	270	0.00	29.853 
23:50	73.2	73.2	73.2	57	57.0	1	4	292	0.00	29.853 
23:55	72.3	72.3	72.3	57	56.2	2	4	315	0.00	29.853 

CoCoRaHS
IN-AL-39
A2 Web Hosting
Creative Commons License
GoDaddy
search engine by freefind advanced

loaded 2018-11-22 05:26:20 • last modified 2010-11-18 10:43:29
Privacy PolicyDisclaimer
• wx.awcolley.com is powered by PmWiki v.2002016 •
• all content (unless otherwise noted) © 2018 A W Colley